createdAt,value
2024-02-28T00:00:11.999Z,40.60
2024-02-28T00:02:39.786Z,40.47
2024-02-28T00:05:07.513Z,40.69
2024-02-28T00:07:35.890Z,40.02
2024-02-28T00:10:03.807Z,39.76
2024-02-28T00:12:31.430Z,40.68
2024-02-28T00:14:58.774Z,41.38
2024-02-28T00:17:27.828Z,39.56
2024-02-28T00:19:55.467Z,40.61
2024-02-28T00:22:22.898Z,39.59
2024-02-28T00:24:50.687Z,40.61
2024-02-28T00:27:18.460Z,40.31
2024-02-28T00:29:45.961Z,39.69
2024-02-28T00:32:13.577Z,41.01
2024-02-28T00:34:42.388Z,40.83
2024-02-28T00:37:09.946Z,41.39
2024-02-28T00:39:37.416Z,40.57
2024-02-28T00:42:04.997Z,39.80
2024-02-28T00:44:32.606Z,39.96
2024-02-28T00:47:00.194Z,39.75
2024-02-28T00:49:27.752Z,40.91
2024-02-28T00:51:57.345Z,40.38
2024-02-28T00:54:26.414Z,40.42
2024-02-28T00:56:54.071Z,40.42
2024-02-28T00:59:21.496Z,40.97
2024-02-28T01:01:49.788Z,39.66
2024-02-28T01:04:17.324Z,41.13
2024-02-28T01:06:44.798Z,39.73
2024-02-28T01:09:13.789Z,40.77
2024-02-28T01:11:41.446Z,39.68
2024-02-28T01:14:09.078Z,40.24
2024-02-28T01:16:36.669Z,40.81
2024-02-28T01:19:04.424Z,40.51
2024-02-28T01:21:32.054Z,39.84
2024-02-28T01:23:59.457Z,40.48
2024-02-28T01:26:28.544Z,40.97
2024-02-28T01:28:56.117Z,40.13
2024-02-28T01:31:23.828Z,41.22
2024-02-28T01:33:51.625Z,41.04
2024-02-28T01:36:19.298Z,39.77
2024-02-28T01:38:46.830Z,41.22
2024-02-28T01:41:14.360Z,40.34
2024-02-28T01:43:44.085Z,41.30
2024-02-28T01:46:23.185Z,39.85
2024-02-28T01:48:51.101Z,40.41
2024-02-28T01:51:19.092Z,40.10
2024-02-28T01:53:47.122Z,40.25
2024-02-28T01:56:17.299Z,39.76
2024-02-28T01:58:48.316Z,40.97
2024-02-28T02:01:16.923Z,40.01
2024-02-28T02:03:51.157Z,40.60
2024-02-28T02:06:19.426Z,40.89
2024-02-28T02:08:47.626Z,40.84
2024-02-28T02:11:16.112Z,40.26
2024-02-28T02:13:51.005Z,40.01
2024-02-28T02:16:19.938Z,40.02
2024-02-28T02:18:48.705Z,39.99
2024-02-28T02:21:19.591Z,40.70
2024-02-28T02:23:48.589Z,40.43
2024-02-28T02:26:16.213Z,41.28
2024-02-28T02:28:43.596Z,39.84
2024-02-28T02:31:12.182Z,40.72
2024-02-28T02:33:39.815Z,40.33
2024-02-28T02:36:07.881Z,41.23
2024-02-28T02:38:35.576Z,39.51
2024-02-28T02:41:04.802Z,39.84
2024-02-28T02:43:32.387Z,39.81
2024-02-28T02:45:59.875Z,40.73
2024-02-28T02:48:27.605Z,39.77
2024-02-28T02:50:55.002Z,39.94
2024-02-28T02:53:22.559Z,39.95
2024-02-28T02:55:49.932Z,39.69
2024-02-28T02:58:18.934Z,39.81
2024-02-28T03:00:46.709Z,39.83
2024-02-28T03:03:14.343Z,41.48
2024-02-28T03:05:42.064Z,41.16
2024-02-28T03:08:09.609Z,40.74
2024-02-28T03:10:37.046Z,39.84
2024-02-28T03:13:06.779Z,40.15
2024-02-28T03:15:35.910Z,40.97
2024-02-28T03:18:04.030Z,39.90
2024-02-28T03:20:31.620Z,39.92
2024-02-28T03:22:59.233Z,41.46
2024-02-28T03:25:26.824Z,40.33
2024-02-28T03:27:54.439Z,40.98
2024-02-28T03:30:21.861Z,39.73
2024-02-28T03:32:50.966Z,41.00
2024-02-28T03:35:18.596Z,41.12
2024-02-28T03:37:46.258Z,41.15
2024-02-28T03:40:13.744Z,39.58
2024-02-28T03:42:41.549Z,40.54
2024-02-28T03:45:09.655Z,40.77
2024-02-28T03:47:37.280Z,39.85
2024-02-28T03:50:06.622Z,39.81
2024-02-28T03:52:34.267Z,39.66
2024-02-28T03:55:01.784Z,41.55
2024-02-28T03:57:29.708Z,40.88
2024-02-28T03:59:57.369Z,39.79
2024-02-28T04:02:24.783Z,40.67
2024-02-28T04:04:52.341Z,39.79
2024-02-28T04:07:21.289Z,39.80
2024-02-28T04:09:49.044Z,40.44
2024-02-28T04:12:16.770Z,41.31
2024-02-28T04:14:44.401Z,39.78
2024-02-28T04:17:11.917Z,41.59
2024-02-28T04:19:40.617Z,41.64
2024-02-28T04:22:08.452Z,40.09
2024-02-28T04:24:37.461Z,41.49
2024-02-28T04:27:06.848Z,40.59
2024-02-28T04:29:34.449Z,39.81
2024-02-28T04:32:02.029Z,40.36
2024-02-28T04:34:29.443Z,40.32
2024-02-28T04:36:57.091Z,41.31
2024-02-28T04:39:24.796Z,39.90
2024-02-28T04:41:53.800Z,41.37
2024-02-28T04:44:21.405Z,41.06
2024-02-28T04:46:48.964Z,40.91
2024-02-28T04:49:16.603Z,41.37
2024-02-28T04:51:44.333Z,39.67
2024-02-28T04:54:11.953Z,39.70
2024-02-28T04:56:40.689Z,41.56
2024-02-28T04:59:09.722Z,39.67
2024-02-28T05:01:40.345Z,41.07
2024-02-28T05:04:08.465Z,40.86
2024-02-28T05:06:40.184Z,40.74
2024-02-28T05:09:08.456Z,41.43
2024-02-28T05:11:36.171Z,41.37
2024-02-28T05:14:03.876Z,39.45
2024-02-28T05:16:33.535Z,39.24
2024-02-28T05:19:01.222Z,37.15
2024-02-28T05:21:29.128Z,38.01
2024-02-28T05:23:57.010Z,37.76
2024-02-28T05:26:24.440Z,37.01
2024-02-28T05:28:52.034Z,36.94
2024-02-28T05:31:23.898Z,37.87
2024-02-28T05:33:55.291Z,37.06
2024-02-28T05:36:23.227Z,37.37
2024-02-28T05:38:50.974Z,36.51
2024-02-28T05:41:18.994Z,36.43
2024-02-28T05:43:47.448Z,36.08
2024-02-28T05:46:15.619Z,37.04
2024-02-28T05:48:43.625Z,37.08
2024-02-28T05:51:13.175Z,37.05
2024-02-28T05:53:41.501Z,36.69
2024-02-28T05:56:16.278Z,36.48
2024-02-28T05:58:45.644Z,38.44
2024-02-28T06:01:16.752Z,37.47
2024-02-28T06:03:46.536Z,38.91
2024-02-28T06:06:15.753Z,38.86
2024-02-28T06:08:44.622Z,38.38
2024-02-28T06:11:12.352Z,38.36
2024-02-28T06:13:41.893Z,38.77
2024-02-28T06:16:15.850Z,38.52
2024-02-28T06:18:43.970Z,37.99
2024-02-28T06:21:11.600Z,37.89
2024-02-28T06:23:40.734Z,38.37
2024-02-28T06:26:15.729Z,38.79
2024-02-28T06:28:44.116Z,38.11
2024-02-28T06:31:13.778Z,38.29
2024-02-28T06:33:41.692Z,39.05
2024-02-28T06:36:09.370Z,38.87
2024-02-28T06:38:37.121Z,39.38
2024-02-28T06:41:06.620Z,38.30
2024-02-28T06:43:35.873Z,38.19
2024-02-28T06:46:04.027Z,39.02
2024-02-28T06:48:31.921Z,38.62
2024-02-28T06:50:59.613Z,39.08
2024-02-28T06:53:27.570Z,39.36
2024-02-28T06:55:55.251Z,38.04
2024-02-28T06:58:26.307Z,38.57
2024-02-28T07:00:55.373Z,39.17
2024-02-28T07:03:24.067Z,38.77
2024-02-28T07:05:51.809Z,37.97
2024-02-28T07:08:19.374Z,38.60
2024-02-28T07:10:50.353Z,38.45
2024-02-28T07:13:18.927Z,37.75
2024-02-28T07:15:48.327Z,38.68
2024-02-28T07:18:16.192Z,38.53
2024-02-28T07:20:43.843Z,38.58
2024-02-28T07:23:11.489Z,38.89
2024-02-28T07:25:39.207Z,38.86
2024-02-28T07:28:06.972Z,39.54
2024-02-28T07:30:34.667Z,38.03
2024-02-28T07:33:05.950Z,37.88
2024-02-28T07:35:33.751Z,37.82
2024-02-28T07:38:01.334Z,37.62
2024-02-28T07:40:28.970Z,38.19
2024-02-28T07:42:56.691Z,37.85
2024-02-28T07:45:24.422Z,37.31
2024-02-28T07:47:52.283Z,37.77
2024-02-28T07:50:21.404Z,37.76
2024-02-28T07:52:49.013Z,37.32
2024-02-28T07:55:16.862Z,37.02
2024-02-28T07:57:44.450Z,37.40
2024-02-28T08:00:14.649Z,37.30
2024-02-28T08:02:42.367Z,37.85
2024-02-28T08:05:09.944Z,37.48
2024-02-28T08:07:38.981Z,37.53
2024-02-28T08:10:07.346Z,37.35
2024-02-28T08:12:35.304Z,37.86
2024-02-28T08:15:03.062Z,37.63
2024-02-28T08:17:30.846Z,37.58
2024-02-28T08:19:58.393Z,37.40
2024-02-28T08:22:26.307Z,38.16
2024-02-28T08:24:55.601Z,37.49
2024-02-28T08:27:24.609Z,37.89
2024-02-28T08:29:52.731Z,37.88
2024-02-28T08:32:20.508Z,37.48
2024-02-28T08:34:48.271Z,37.39
2024-02-28T08:37:15.989Z,37.83
2024-02-28T08:39:43.735Z,37.30
2024-02-28T08:42:13.394Z,37.77
2024-02-28T08:44:41.183Z,38.12
2024-02-28T08:47:13.142Z,38.00
2024-02-28T08:49:40.950Z,38.14
2024-02-28T08:52:08.615Z,36.81
2024-02-28T08:54:36.377Z,37.77
2024-02-28T08:57:04.817Z,38.37
2024-02-28T08:59:34.338Z,38.00
2024-02-28T09:02:02.026Z,35.80
2024-02-28T09:04:30.000Z,37.10
2024-02-28T09:06:58.599Z,35.86
2024-02-28T09:09:26.422Z,35.68
2024-02-28T09:11:54.006Z,36.50
2024-02-28T09:14:21.681Z,36.30
2024-02-28T09:16:52.473Z,36.54
2024-02-28T09:19:20.057Z,36.01
2024-02-28T09:21:49.193Z,36.31
2024-02-28T09:24:16.915Z,35.81
2024-02-28T09:26:44.640Z,36.44
2024-02-28T09:29:12.255Z,35.70
2024-02-28T09:31:39.886Z,36.11
2024-02-28T09:34:11.053Z,35.80
2024-02-28T09:36:42.321Z,36.85
2024-02-28T09:39:10.128Z,36.84
2024-02-28T09:41:37.771Z,36.53
2024-02-28T09:44:07.900Z,37.57
2024-02-28T09:46:36.141Z,37.28
2024-02-28T09:49:04.984Z,36.58
2024-02-28T09:51:38.541Z,37.34
2024-02-28T09:54:06.881Z,37.65
2024-02-28T09:56:35.368Z,37.10
2024-02-28T09:59:04.229Z,37.28
2024-02-28T10:01:36.435Z,37.55
2024-02-28T10:04:04.565Z,37.14
2024-02-28T10:06:33.862Z,37.41
2024-02-28T10:09:01.657Z,37.58
2024-02-28T10:11:29.806Z,37.91
2024-02-28T10:13:57.425Z,37.60
2024-02-28T10:16:25.936Z,38.07
2024-02-28T10:18:54.535Z,38.34
2024-02-28T10:21:22.231Z,37.70
2024-02-28T10:23:51.297Z,37.58
2024-02-28T10:26:18.905Z,38.25
2024-02-28T10:28:46.841Z,37.81
2024-02-28T10:31:15.723Z,37.77
2024-02-28T10:33:43.624Z,38.28
2024-02-28T10:36:12.745Z,37.94
2024-02-28T10:38:40.343Z,38.33
2024-02-28T10:41:13.066Z,37.56
2024-02-28T10:43:42.041Z,38.17
2024-02-28T10:46:26.172Z,37.79
2024-02-28T10:48:58.593Z,38.31
2024-02-28T10:51:29.323Z,37.99
2024-02-28T10:54:08.243Z,37.88
2024-02-28T10:56:37.511Z,38.40
2024-02-28T10:59:09.639Z,37.89
2024-02-28T11:01:42.854Z,38.50
2024-02-28T11:04:12.124Z,38.13
2024-02-28T11:06:49.759Z,38.18
2024-02-28T11:09:21.111Z,37.97
2024-02-28T11:11:50.803Z,38.45
2024-02-28T11:14:22.557Z,37.63
2024-02-28T11:17:01.220Z,37.24
2024-02-28T11:19:34.185Z,36.61
2024-02-28T11:22:02.998Z,36.58
2024-02-28T11:24:35.179Z,37.21
2024-02-28T11:27:05.067Z,37.37
2024-02-28T11:29:32.862Z,37.34
2024-02-28T11:32:00.458Z,37.78
2024-02-28T11:34:28.079Z,37.21
2024-02-28T11:36:57.563Z,36.97
2024-02-28T11:39:28.758Z,37.81
2024-02-28T11:41:56.822Z,37.61
2024-02-28T11:44:26.132Z,38.02
2024-02-28T11:46:53.692Z,38.05
2024-02-28T11:49:21.514Z,37.25
2024-02-28T11:51:49.592Z,37.17
2024-02-28T11:54:17.469Z,37.84
2024-02-28T11:56:45.266Z,38.44
2024-02-28T11:59:13.115Z,38.64
2024-02-28T12:01:45.114Z,37.72
2024-02-28T12:04:14.164Z,38.64
2024-02-28T12:06:42.179Z,37.92
2024-02-28T12:09:11.402Z,38.23
2024-02-28T12:11:40.275Z,38.19
2024-02-28T12:14:10.542Z,37.70
2024-02-28T12:16:41.776Z,37.62
2024-02-28T12:19:11.431Z,37.26
2024-02-28T12:21:39.707Z,37.45
2024-02-28T12:24:10.418Z,38.53
2024-02-28T12:26:38.588Z,38.54
2024-02-28T12:29:06.384Z,38.68
2024-02-28T12:31:34.082Z,38.23
2024-02-28T12:34:01.728Z,38.82
2024-02-28T12:36:32.179Z,39.00
2024-02-28T12:39:00.888Z,38.46
2024-02-28T12:41:29.010Z,38.36
2024-02-28T12:43:56.669Z,39.46
2024-02-28T12:46:24.320Z,39.13
2024-02-28T12:48:51.948Z,39.23
2024-02-28T12:51:37.169Z,38.73
2024-02-28T12:54:06.730Z,37.80
2024-02-28T12:56:34.775Z,38.41
2024-02-28T12:59:02.951Z,38.52
2024-02-28T13:01:31.627Z,38.02
2024-02-28T13:03:59.485Z,38.22
2024-02-28T13:06:27.147Z,38.42
2024-02-28T13:08:55.342Z,38.76
2024-02-28T13:11:25.414Z,37.85
2024-02-28T13:13:53.597Z,38.37
2024-02-28T13:16:23.020Z,38.10
2024-02-28T13:18:50.895Z,38.55
2024-02-28T13:21:18.704Z,38.59
2024-02-28T13:23:46.355Z,39.14
2024-02-28T13:26:18.869Z,38.78
2024-02-28T13:28:50.589Z,39.31
2024-02-28T13:31:20.356Z,38.89
2024-02-28T13:33:49.993Z,39.20
2024-02-28T13:36:18.022Z,38.43
2024-02-28T13:38:45.928Z,37.94
2024-02-28T13:41:14.005Z,39.13
2024-02-28T13:43:41.609Z,38.15
2024-02-28T13:46:11.464Z,35.13
2024-02-28T13:48:39.512Z,35.46
2024-02-28T13:51:07.409Z,36.00
2024-02-28T13:53:35.096Z,35.04
2024-02-28T13:56:02.780Z,37.23
2024-02-28T13:58:38.884Z,35.85
2024-02-28T14:01:12.304Z,35.92
2024-02-28T14:03:42.873Z,36.84
2024-02-28T14:06:11.166Z,36.64
2024-02-28T14:08:43.197Z,37.74
2024-02-28T14:11:11.647Z,37.97
2024-02-28T14:13:41.013Z,37.22
2024-02-28T14:16:09.044Z,37.21
2024-02-28T14:18:39.116Z,37.26
2024-02-28T14:21:08.273Z,37.07
2024-02-28T14:23:36.138Z,37.54
2024-02-28T14:26:04.831Z,37.85
2024-02-28T14:28:32.501Z,37.70
2024-02-28T14:31:00.296Z,37.68
2024-02-28T14:33:27.943Z,37.80
2024-02-28T14:35:57.288Z,38.10
2024-02-28T14:38:24.848Z,37.76
2024-02-28T14:40:53.124Z,37.71
2024-02-28T14:43:20.774Z,38.34
2024-02-28T14:45:48.573Z,38.45
2024-02-28T14:48:16.369Z,38.65
2024-02-28T14:50:44.491Z,38.22
2024-02-28T14:53:13.546Z,39.24
2024-02-28T14:55:41.276Z,39.65
2024-02-28T14:58:09.013Z,38.97
2024-02-28T15:00:37.154Z,39.53
2024-02-28T15:03:05.996Z,39.76
2024-02-28T15:05:33.708Z,39.48
2024-02-28T15:08:01.370Z,39.52
2024-02-28T15:10:30.359Z,38.68
2024-02-28T15:12:58.046Z,38.90
2024-02-28T15:15:25.744Z,39.06
2024-02-28T15:17:53.874Z,39.41
2024-02-28T15:20:21.569Z,38.59
2024-02-28T15:22:49.187Z,39.11
2024-02-28T15:25:16.990Z,39.40
2024-02-28T15:27:46.037Z,39.29
2024-02-28T15:30:14.372Z,40.13
2024-02-28T15:32:43.478Z,39.61
2024-02-28T15:35:11.612Z,40.61
2024-02-28T15:37:39.694Z,40.60
2024-02-28T15:40:08.460Z,40.45
2024-02-28T15:42:36.756Z,40.12
2024-02-28T15:45:07.076Z,39.25
2024-02-28T15:47:35.392Z,40.15
2024-02-28T15:50:05.788Z,40.18
2024-02-28T15:52:33.750Z,40.09
2024-02-28T15:55:01.602Z,39.87
2024-02-28T15:57:29.299Z,40.66
2024-02-28T15:59:57.038Z,40.06
2024-02-28T16:02:26.338Z,40.76
2024-02-28T16:04:54.018Z,40.77
2024-02-28T16:07:21.928Z,39.81
2024-02-28T16:09:50.674Z,39.86
2024-02-28T16:12:18.502Z,41.52
2024-02-28T16:14:46.144Z,40.43
2024-02-28T16:17:16.978Z,40.25
2024-02-28T16:19:47.487Z,41.11
2024-02-28T16:22:15.226Z,41.70
2024-02-28T16:24:43.216Z,41.11
2024-02-28T16:27:10.901Z,41.40
2024-02-28T16:29:38.702Z,41.45
2024-02-28T16:32:06.776Z,40.12
2024-02-28T16:34:37.101Z,41.83
2024-02-28T16:37:06.707Z,41.07
2024-02-28T16:39:34.677Z,41.30
2024-02-28T16:42:04.805Z,41.10
2024-02-28T16:44:32.849Z,40.92
2024-02-28T16:47:00.506Z,41.72
2024-02-28T16:49:28.019Z,40.59
2024-02-28T16:51:55.641Z,40.60
2024-02-28T16:54:25.322Z,38.99
2024-02-28T16:56:52.916Z,38.46
2024-02-28T16:59:20.317Z,38.22
2024-02-28T17:01:49.905Z,39.33
2024-02-28T17:04:17.815Z,39.75
2024-02-28T17:06:45.759Z,40.20
2024-02-28T17:09:14.132Z,40.88
2024-02-28T17:11:43.205Z,40.69
2024-02-28T17:14:10.816Z,41.24
2024-02-28T17:16:38.626Z,40.00
2024-02-28T17:19:06.629Z,40.99
2024-02-28T17:21:36.761Z,40.86
2024-02-28T17:24:06.045Z,39.73
2024-02-28T17:26:33.705Z,40.72
2024-02-28T17:29:02.642Z,40.45
2024-02-28T17:31:30.272Z,40.16
2024-02-28T17:33:57.728Z,40.79
2024-02-28T17:36:25.499Z,41.45
2024-02-28T17:38:53.461Z,40.81
2024-02-28T17:41:21.124Z,40.35
2024-02-28T17:43:48.841Z,39.88
2024-02-28T17:46:17.678Z,41.64
2024-02-28T17:48:45.348Z,41.31
2024-02-28T17:51:12.996Z,40.26
2024-02-28T17:53:40.385Z,41.56
2024-02-28T17:56:08.073Z,41.57
2024-02-28T17:58:35.641Z,40.53
2024-02-28T18:01:06.644Z,41.20
2024-02-28T18:03:35.870Z,40.32
2024-02-28T18:06:04.255Z,40.00
2024-02-28T18:08:33.603Z,40.29
2024-02-28T18:11:01.484Z,41.26
2024-02-28T18:13:29.215Z,39.81
2024-02-28T18:15:56.856Z,40.07
2024-02-28T18:18:24.271Z,41.02
2024-02-28T18:20:54.969Z,40.94
2024-02-28T18:23:30.173Z,39.69
2024-02-28T18:26:02.213Z,40.87
2024-02-28T18:28:30.727Z,40.35
2024-02-28T18:30:58.400Z,41.07
2024-02-28T18:33:26.169Z,39.56
2024-02-28T18:35:57.993Z,40.75
2024-02-28T18:38:29.888Z,39.86
2024-02-28T18:40:58.922Z,39.61
2024-02-28T18:43:26.588Z,41.59
2024-02-28T18:45:54.038Z,41.01
2024-02-28T18:48:22.171Z,40.59
2024-02-28T18:50:50.812Z,39.79
2024-02-28T18:53:19.883Z,40.25
2024-02-28T18:55:47.436Z,39.94
2024-02-28T18:58:14.922Z,40.36
2024-02-28T19:00:47.585Z,40.70
2024-02-28T19:03:15.376Z,40.76
2024-02-28T19:05:42.849Z,40.43
2024-02-28T19:08:10.565Z,40.04
2024-02-28T19:10:40.684Z,41.51
2024-02-28T19:13:09.948Z,40.86
2024-02-28T19:15:37.611Z,40.76
2024-02-28T19:18:05.846Z,40.16
2024-02-28T19:20:33.685Z,40.96
2024-02-28T19:23:01.363Z,40.28
2024-02-28T19:25:28.799Z,40.58
2024-02-28T19:27:57.960Z,40.84
2024-02-28T19:30:25.737Z,41.54
2024-02-28T19:32:56.477Z,41.20
2024-02-28T19:35:24.299Z,40.07
2024-02-28T19:37:51.994Z,41.00
2024-02-28T19:40:19.620Z,40.72
2024-02-28T19:42:47.262Z,40.14
2024-02-28T19:45:17.250Z,40.96
2024-02-28T19:47:47.119Z,40.95
2024-02-28T19:50:14.887Z,40.55
2024-02-28T19:52:42.816Z,39.25
2024-02-28T19:55:10.494Z,40.38
2024-02-28T19:57:38.535Z,40.45
2024-02-28T20:00:11.203Z,40.25
2024-02-28T20:02:40.635Z,40.93
2024-02-28T20:05:11.148Z,40.61
2024-02-28T20:07:38.740Z,39.92
2024-02-28T20:10:08.287Z,40.06
2024-02-28T20:12:36.024Z,40.12
2024-02-28T20:15:04.108Z,40.82
2024-02-28T20:17:32.165Z,39.91
2024-02-28T20:20:01.010Z,40.45
2024-02-28T20:22:28.640Z,39.89
2024-02-28T20:24:56.038Z,40.28
2024-02-28T20:27:23.600Z,39.70
2024-02-28T20:29:51.274Z,40.06
2024-02-28T20:32:19.424Z,41.10
2024-02-28T20:34:46.995Z,40.12
2024-02-28T20:37:15.838Z,40.84
2024-02-28T20:39:43.597Z,39.59
2024-02-28T20:42:11.310Z,41.39
2024-02-28T20:44:38.756Z,39.88
2024-02-28T20:47:09.544Z,40.48
2024-02-28T20:49:37.747Z,41.35
2024-02-28T20:52:06.006Z,40.11
2024-02-28T20:54:35.494Z,40.09
2024-02-28T20:57:12.319Z,40.51
2024-02-28T20:59:44.315Z,40.65
2024-02-28T21:02:12.457Z,40.47
2024-02-28T21:04:42.475Z,40.99
2024-02-28T21:07:10.352Z,39.94
2024-02-28T21:09:42.674Z,40.98
2024-02-28T21:12:14.314Z,40.52
2024-02-28T21:14:42.402Z,39.83
2024-02-28T21:17:09.993Z,41.13
2024-02-28T21:19:37.446Z,41.14
2024-02-28T21:22:05.793Z,39.66
2024-02-28T21:24:33.605Z,39.57
2024-02-28T21:27:04.423Z,41.40
2024-02-28T21:29:33.302Z,40.33
2024-02-28T21:32:00.846Z,40.79
2024-02-28T21:34:29.720Z,41.29
2024-02-28T21:36:57.329Z,41.33
2024-02-28T21:39:24.746Z,40.16
2024-02-28T21:41:52.533Z,39.99
2024-02-28T21:44:21.665Z,39.77
2024-02-28T21:46:49.859Z,41.54
2024-02-28T21:49:17.504Z,40.37
2024-02-28T21:51:45.159Z,40.96
2024-02-28T21:54:12.797Z,39.87
2024-02-28T21:56:41.904Z,41.22
2024-02-28T21:59:09.555Z,41.57
2024-02-28T22:01:39.127Z,40.37
2024-02-28T22:04:06.964Z,40.79
2024-02-28T22:06:34.705Z,40.54
2024-02-28T22:09:02.705Z,40.64
2024-02-28T22:11:32.085Z,40.30
2024-02-28T22:13:59.800Z,41.72
2024-02-28T22:16:27.538Z,40.77
2024-02-28T22:18:56.388Z,41.53
2024-02-28T22:21:24.084Z,41.19
2024-02-28T22:23:51.459Z,40.54
2024-02-28T22:26:22.516Z,41.34
2024-02-28T22:28:50.050Z,40.95
2024-02-28T22:31:17.534Z,41.51
2024-02-28T22:33:45.121Z,40.35
2024-02-28T22:36:14.163Z,40.51
2024-02-28T22:38:41.752Z,41.27
2024-02-28T22:41:09.340Z,40.12
2024-02-28T22:43:36.720Z,40.52
2024-02-28T22:46:04.671Z,40.08
2024-02-28T22:48:32.458Z,41.01
2024-02-28T22:51:00.037Z,40.55
2024-02-28T22:53:29.031Z,40.99
2024-02-28T22:55:57.140Z,41.72
2024-02-28T22:58:24.877Z,41.32
2024-02-28T23:00:52.595Z,39.86
2024-02-28T23:03:20.325Z,40.32
2024-02-28T23:05:47.993Z,40.21
2024-02-28T23:08:15.402Z,40.02
2024-02-28T23:10:44.404Z,40.05
2024-02-28T23:13:12.159Z,41.48
2024-02-28T23:15:41.643Z,40.62
2024-02-28T23:18:09.634Z,41.68
2024-02-28T23:20:37.308Z,41.21
2024-02-28T23:23:05.028Z,40.80
2024-02-28T23:25:33.695Z,40.21
2024-02-28T23:28:03.815Z,41.33
2024-02-28T23:30:31.989Z,39.98
2024-02-28T23:33:01.923Z,40.29
2024-02-28T23:35:29.810Z,40.58
2024-02-28T23:37:57.487Z,41.89
2024-02-28T23:40:25.369Z,40.22
2024-02-28T23:42:53.121Z,40.31
2024-02-28T23:45:22.337Z,40.80
2024-02-28T23:47:49.986Z,40.59
2024-02-28T23:50:18.072Z,41.78
2024-02-28T23:52:47.299Z,40.78
2024-02-28T23:55:15.258Z,41.60
2024-02-28T23:57:43.614Z,40.26
